Time;durP1;ratioP1;P1;durP2;ratioP2;P2;SDS_P1;SDS_P2;PMS_P1;PMS_P2;Temp;Humidity;BMP_temperature;BMP_pressure;BME280_temperature;BME280_humidity;BME280_pressure;Samples;Min_cycle;Max_cycle;Signal;HPM_P1;HPM_P2
2021/06/30 00:02:10;;;;;;;;;0.00;0.00;;;;;18.99;64.51;100866.19;5105172;27;45820;-67
2021/06/30 00:04:36;;;;;;;;;0.00;0.00;;;;;19.00;64.67;100867.00;5119070;27;45242;-66
2021/06/30 00:07:02;;;;;;;;;0.00;0.00;;;;;18.98;64.79;100866.34;5103895;27;45383;-66
2021/06/30 00:09:28;;;;;;;;;0.00;0.00;;;;;18.97;63.99;100857.53;5121671;27;46724;-66
2021/06/30 00:11:53;;;;;;;;;0.00;0.00;;;;;18.98;64.70;100869.00;5123702;27;45332;-66
2021/06/30 00:14:19;;;;;;;;;0.00;0.00;;;;;18.94;65.07;100868.53;5104867;27;45492;-66
2021/06/30 00:16:44;;;;;;;;;0.00;0.00;;;;;18.91;64.74;100863.53;5123467;27;45442;-64
2021/06/30 00:19:11;;;;;;;;;0.00;0.00;;;;;18.92;65.20;100864.38;5122976;27;46650;-64
2021/06/30 00:21:38;;;;;;;;;0.00;0.00;;;;;18.89;64.87;100860.22;5123201;27;45280;-64
2021/06/30 00:24:05;;;;;;;;;0.00;0.00;;;;;18.88;64.89;100865.69;5123352;27;45320;-64
2021/06/30 00:26:31;;;;;;;;;0.00;0.00;;;;;18.83;65.05;100859.09;5123564;27;45566;-64
2021/06/30 00:28:56;;;;;;;;;0.00;0.00;;;;;18.77;64.53;100854.41;5122822;27;45414;-64
2021/06/30 00:31:22;;;;;;;;;0.00;0.00;;;;;18.78;65.32;100857.94;5123016;27;45269;-67
2021/06/30 00:33:48;;;;;;;;;0.00;0.00;;;;;18.78;64.61;100858.75;5123579;27;45171;-66
2021/06/30 00:36:13;;;;;;;;;0.00;0.00;;;;;18.77;64.87;100862.41;5123690;27;45403;-66
2021/06/30 00:38:39;;;;;;;;;0.00;0.00;;;;;18.76;64.89;100852.72;5123180;27;45371;-64
2021/06/30 00:41:04;;;;;;;;;0.00;0.00;;;;;18.76;65.15;100863.38;5123227;27;45232;-64
2021/06/30 00:43:29;;;;;;;;;0.00;0.00;;;;;18.75;64.93;100855.59;5122977;27;45273;-64
2021/06/30 00:45:55;;;;;;;;;0.00;0.00;;;;;18.74;65.28;100865.38;5104677;27;45279;-65
2021/06/30 00:48:20;;;;;;;;;0.00;0.00;;;;;18.73;65.25;100861.06;5123144;27;45372;-68
2021/06/30 00:50:45;;;;;;;;;0.00;0.00;;;;;18.68;64.74;100849.25;5123259;27;45240;-65
2021/06/30 00:53:11;;;;;;;;;0.00;0.00;;;;;18.65;67.30;100855.75;5104457;27;45231;-63
2021/06/30 00:55:38;;;;;;;;;0.00;0.00;;;;;18.60;65.39;100858.09;5123245;27;45258;-63
2021/06/30 00:58:03;;;;;;;;;0.00;0.00;;;;;18.58;65.66;100852.94;5103670;27;47828;-64
2021/06/30 01:00:29;;;;;;;;;0.00;0.00;;;;;18.59;66.02;100865.22;5122691;27;45317;-63
2021/06/30 01:02:54;;;;;;;;;0.00;0.00;;;;;18.58;65.61;100862.75;5122764;27;45436;-63
2021/06/30 01:05:19;;;;;;;;;0.00;0.00;;;;;18.56;66.29;100859.44;5112943;27;45312;-63
2021/06/30 01:07:45;;;;;;;;;0.00;0.00;;;;;18.55;66.15;100868.41;5101837;27;45445;-64
2021/06/30 01:10:11;;;;;;;;;0.00;0.00;;;;;18.52;66.27;100858.94;5112479;27;45398;-64
2021/06/30 01:12:37;;;;;;;;;0.00;0.00;;;;;18.52;66.41;100864.25;5119466;27;45499;-64
2021/06/30 01:15:08;;;;;;;;;0.00;0.00;;;;;18.47;66.55;100855.13;5112479;27;45486;-64
2021/06/30 01:17:34;;;;;;;;;0.00;0.00;;;;;18.41;66.32;100846.81;5103870;27;46981;-64
2021/06/30 01:20:00;;;;;;;;;0.00;0.00;;;;;18.40;67.15;100858.47;5104004;27;45646;-63
2021/06/30 01:22:26;;;;;;;;;0.00;0.00;;;;;18.38;66.92;100851.63;5122598;27;45311;-64
2021/06/30 01:24:53;;;;;;;;;0.00;0.00;;;;;18.39;66.89;100851.47;5122989;27;45320;-64
2021/06/30 01:27:20;;;;;;;;;0.00;0.00;;;;;18.35;66.71;100858.13;5122376;27;46525;-63
2021/06/30 01:29:46;;;;;;;;;0.00;0.00;;;;;18.37;66.94;100860.63;5103845;27;45394;-64
2021/06/30 01:32:12;;;;;;;;;0.00;0.00;;;;;18.35;67.33;100855.44;5122527;27;45644;-64
2021/06/30 01:34:37;;;;;;;;;0.00;0.00;;;;;18.34;67.11;100852.97;5122869;27;45565;-63
2021/06/30 01:37:03;;;;;;;;;0.00;0.00;;;;;18.32;67.46;100850.47;5122345;27;46263;-64
2021/06/30 01:39:29;;;;;;;;;0.00;0.00;;;;;18.30;72.06;100852.47;5122437;27;45338;-63
2021/06/30 01:41:55;;;;;;;;;0.00;0.00;;;;;18.19;68.71;100852.81;5122469;27;45289;-64
2021/06/30 01:44:21;;;;;;;;;0.00;0.00;;;;;18.14;68.60;100852.47;5122459;27;45299;-64
2021/06/30 01:46:47;;;;;;;;;0.00;0.00;;;;;18.16;68.06;100856.63;5121961;27;46162;-64
2021/06/30 01:49:13;;;;;;;;;0.00;0.00;;;;;18.21;68.50;100853.47;5122346;27;45344;-64
2021/06/30 01:51:38;;;;;;;;;0.00;0.00;;;;;18.20;69.05;100854.47;5122285;27;45264;-64
2021/06/30 01:54:06;;;;;;;;;0.00;0.00;;;;;18.16;69.04;100856.63;5122513;27;45570;-65
2021/06/30 01:56:34;;;;;;;;;0.00;0.00;;;;;18.14;68.18;100853.31;5103253;27;47813;-64
2021/06/30 01:59:00;;;;;;;;;0.00;0.00;;;;;18.14;68.17;100855.97;5103392;27;45445;-65
2021/06/30 02:01:26;;;;;;;;;0.00;0.00;;;;;18.15;68.46;100854.97;5103344;27;45408;-64
2021/06/30 02:03:55;;;;;;;;;0.00;0.00;;;;;18.19;68.25;100863.44;5123872;27;45484;-65
2021/06/30 02:06:20;;;;;;;;;0.00;0.00;;;;;18.16;68.22;100858.44;5107539;27;45294;-64
2021/06/30 02:08:45;;;;;;;;;0.00;0.00;;;;;18.17;68.57;100863.59;5116350;27;45233;-64
2021/06/30 02:11:11;;;;;;;;;0.00;0.00;;;;;18.18;67.97;100859.13;5107069;27;45301;-63
2021/06/30 02:13:36;;;;;;;;;0.00;0.00;;;;;18.17;67.71;100860.94;5096071;27;45292;-64
2021/06/30 02:16:02;;;;;;;;;0.00;0.00;;;;;18.19;68.20;100866.94;5104381;27;46265;-63
2021/06/30 02:18:27;;;;;;;;;0.00;0.00;;;;;18.19;67.97;100864.28;5116921;27;45296;-64
2021/06/30 02:20:53;;;;;;;;;0.00;0.00;;;;;18.20;67.56;100865.91;5125474;27;45419;-64
2021/06/30 02:23:18;;;;;;;;;0.00;0.00;;;;;18.21;67.69;100872.09;5125712;27;45311;-64
2021/06/30 02:25:43;;;;;;;;;0.00;0.00;;;;;18.19;68.15;100866.94;5125368;27;46271;-64
2021/06/30 02:28:09;;;;;;;;;0.00;0.00;;;;;18.19;67.67;100866.94;5106654;27;45310;-64
2021/06/30 02:30:35;;;;;;;;;0.00;0.00;;;;;18.14;67.05;100873.72;5125073;27;45476;-64
2021/06/30 02:33:01;;;;;;;;;0.00;0.00;;;;;18.13;68.24;100869.41;5107038;27;46086;-64
2021/06/30 02:35:28;;;;;;;;;0.00;0.00;;;;;18.11;67.33;100872.22;5106444;27;47936;-64
2021/06/30 02:37:56;;;;;;;;;0.00;0.00;;;;;18.07;67.88;100872.72;5125317;27;45299;-63
2021/06/30 02:40:23;;;;;;;;;0.00;0.00;;;;;17.98;74.14;100872.72;5125346;27;45339;-64
2021/06/30 02:42:50;;;;;;;;;0.00;0.00;;;;;18.00;68.67;100877.88;5125326;27;45415;-63
2021/06/30 02:45:17;;;;;;;;;0.00;0.00;;;;;17.96;68.41;100874.72;5124757;27;45371;-63
2021/06/30 02:47:46;;;;;;;;;0.00;0.00;;;;;17.95;68.29;100875.72;5106737;27;45364;-64
2021/06/30 02:50:15;;;;;;;;;0.00;0.00;;;;;17.92;68.86;100873.38;5106507;27;45253;-63
2021/06/30 02:52:41;;;;;;;;;0.00;0.00;;;;;17.90;68.52;100880.66;5125418;27;45331;-64
2021/06/30 02:55:07;;;;;;;;;0.00;0.00;;;;;17.82;68.05;100870.06;5124894;27;45849;-64
2021/06/30 02:57:33;;;;;;;;;0.00;0.00;;;;;17.78;68.29;100872.16;5124594;27;45267;-64
2021/06/30 02:59:59;;;;;;;;;0.00;0.00;;;;;17.75;67.41;100875.16;5124581;27;45162;-63
2021/06/30 03:02:24;;;;;;;;;0.00;0.00;;;;;17.72;67.81;100877.28;5125192;27;45213;-63
2021/06/30 03:04:50;;;;;;;;;0.00;0.00;;;;;17.65;67.73;100882.44;5118565;27;45446;-64
2021/06/30 03:07:15;;;;;;;;;0.00;0.00;;;;;17.65;67.88;100886.91;5117413;27;45219;-64
2021/06/30 03:09:41;;;;;;;;;0.00;0.00;;;;;17.67;67.34;100890.22;5124890;27;45696;-64
2021/06/30 03:12:07;;;;;;;;;0.00;0.00;;;;;17.61;67.27;100881.09;5124860;27;45539;-64
2021/06/30 03:14:32;;;;;;;;;0.00;0.00;;;;;17.58;67.69;100886.69;5104759;27;47170;-64
2021/06/30 03:16:57;;;;;;;;;0.00;0.00;;;;;17.55;67.87;100884.38;5124172;27;45391;-64
2021/06/30 03:19:23;;;;;;;;;0.00;0.00;;;;;17.54;67.85;100888.88;5124511;27;45356;-64
2021/06/30 03:21:48;;;;;;;;;0.00;0.00;;;;;17.52;67.74;100884.72;5106296;27;45324;-64
2021/06/30 03:24:14;;;;;;;;;0.00;0.00;;;;;17.52;67.42;100887.38;5124404;27;46137;-64
2021/06/30 03:26:40;;;;;;;;;0.00;0.00;;;;;17.49;68.02;100891.16;5124634;27;45299;-64
2021/06/30 03:29:06;;;;;;;;;0.00;0.00;;;;;17.48;68.21;100892.16;5124398;27;45237;-64
2021/06/30 03:31:32;;;;;;;;;0.00;0.00;;;;;17.47;67.81;100897.63;5105808;27;45547;-63
2021/06/30 03:33:58;;;;;;;;;0.00;0.00;;;;;17.47;67.60;100894.97;5124269;27;45503;-63
2021/06/30 03:36:24;;;;;;;;;0.00;0.00;;;;;17.50;67.22;100894.66;5124424;27;45244;-63
2021/06/30 03:38:49;;;;;;;;;0.00;0.00;;;;;17.49;67.35;100891.16;5105666;27;45539;-64
2021/06/30 03:41:14;;;;;;;;;0.00;0.00;;;;;17.50;67.45;100906.13;5124639;27;45168;-63
2021/06/30 03:43:40;;;;;;;;;0.00;0.00;;;;;17.51;67.27;100891.00;5105227;27;48096;-63
2021/06/30 03:46:08;;;;;;;;;0.00;0.00;;;;;17.51;67.14;100893.66;5123921;27;45292;-63
2021/06/30 03:48:33;;;;;;;;;0.00;0.00;;;;;17.51;67.36;100897.13;5124225;27;45347;-63
2021/06/30 03:50:59;;;;;;;;;0.00;0.00;;;;;17.49;67.45;100898.31;5124410;27;45478;-63
2021/06/30 03:53:24;;;;;;;;;0.00;0.00;;;;;17.51;67.51;100899.78;5123838;27;45415;-64
2021/06/30 03:55:49;;;;;;;;;0.00;0.00;;;;;17.47;67.56;100909.06;5123494;27;45319;-64
2021/06/30 03:58:14;;;;;;;;;0.00;0.00;;;;;17.43;67.66;100905.94;5123796;27;45367;-64
2021/06/30 04:00:40;;;;;;;;;0.00;0.00;;;;;17.45;67.57;100903.13;5123883;27;45311;-64
2021/06/30 04:03:05;;;;;;;;;0.00;0.00;;;;;17.45;67.66;100905.78;5123202;27;45466;-64
2021/06/30 04:05:31;;;;;;;;;0.00;0.00;;;;;17.42;67.69;100896.28;5111666;27;45357;-64
2021/06/30 04:07:56;;;;;;;;;0.00;0.00;;;;;17.40;67.84;100894.78;5121943;27;45299;-64
2021/06/30 04:10:22;;;;;;;;;0.00;0.00;;;;;17.39;67.95;100903.75;5123899;27;45318;-64
2021/06/30 04:12:47;;;;;;;;;0.00;0.00;;;;;17.39;68.26;100901.09;5117953;27;45357;-64
2021/06/30 04:15:13;;;;;;;;;0.00;0.00;;;;;17.39;67.79;100904.56;5114668;27;45252;-64
2021/06/30 04:17:39;;;;;;;;;0.00;0.00;;;;;17.43;67.91;100900.63;5104939;27;46114;-64
2021/06/30 04:20:07;;;;;;;;;0.00;0.00;;;;;17.46;68.02;100898.63;5123768;27;45498;-64
2021/06/30 04:22:33;;;;;;;;;0.00;0.00;;;;;17.46;67.55;100906.59;5123141;27;45317;-64
2021/06/30 04:24:58;;;;;;;;;0.00;0.00;;;;;17.40;68.07;100900.09;5123430;27;45273;-64
2021/06/30 04:27:24;;;;;;;;;0.00;0.00;;;;;17.41;67.99;100905.25;5122921;27;45342;-64
2021/06/30 04:29:49;;;;;;;;;0.00;0.00;;;;;17.43;68.05;100905.09;5123169;27;45389;-65
2021/06/30 04:32:15;;;;;;;;;0.00;0.00;;;;;17.46;67.85;100906.59;5123017;27;45326;-65
2021/06/30 04:34:40;;;;;;;;;0.00;0.00;;;;;17.49;67.87;100914.22;5123147;27;45304;-67
2021/06/30 04:37:06;;;;;;;;;0.00;0.00;;;;;17.52;67.68;100911.28;5123166;27;45403;-64
2021/06/30 04:39:31;;;;;;;;;0.00;0.00;;;;;17.53;67.50;100912.94;5123393;27;45377;-65
2021/06/30 04:41:56;;;;;;;;;0.00;0.00;;;;;17.54;67.96;100911.94;5104153;27;46947;-65
2021/06/30 04:44:22;;;;;;;;;0.00;0.00;;;;;17.53;67.28;100912.94;5122993;27;45338;-65
2021/06/30 04:46:47;;;;;;;;;0.00;0.00;;;;;17.53;67.50;100905.78;5122928;27;45423;-65
2021/06/30 04:49:12;;;;;;;;;0.00;0.00;;;;;17.56;67.55;100908.13;5123296;27;45444;-65
2021/06/30 04:51:38;;;;;;;;;0.00;0.00;;;;;17.58;67.59;100910.59;5104155;27;46863;-65
2021/06/30 04:54:03;;;;;;;;;0.00;0.00;;;;;17.63;67.98;100910.97;5122779;27;45243;-65
2021/06/30 04:56:29;;;;;;;;;0.00;0.00;;;;;17.65;67.66;100910.81;5122737;27;45191;-63
2021/06/30 04:58:55;;;;;;;;;0.00;0.00;;;;;17.63;68.06;100909.16;5123071;27;45372;-63
2021/06/30 05:01:22;;;;;;;;;0.00;0.00;;;;;17.63;67.62;100908.31;5122382;27;45264;-64
2021/06/30 05:03:47;;;;;;;;;0.00;0.00;;;;;17.63;67.47;100917.13;5103887;27;45659;-64
2021/06/30 05:06:13;;;;;;;;;0.00;0.00;;;;;17.61;67.56;100915.63;5104566;27;45207;-65
2021/06/30 05:08:38;;;;;;;;;0.00;0.00;;;;;17.59;67.58;100917.59;5113809;27;45525;-64
2021/06/30 05:11:03;;;;;;;;;0.00;0.00;;;;;17.54;67.92;100909.28;5103941;27;47321;-64
2021/06/30 05:13:29;;;;;;;;;0.00;0.00;;;;;17.53;67.35;100921.72;5111466;27;45436;-64
2021/06/30 05:15:54;;;;;;;;;0.00;0.00;;;;;17.53;67.49;100918.22;5119944;27;45301;-64
2021/06/30 05:18:19;;;;;;;;;0.00;0.00;;;;;17.51;67.67;100918.38;5122857;27;45310;-65
2021/06/30 05:20:45;;;;;;;;;0.00;0.00;;;;;17.52;68.07;100924.56;5122214;27;45407;-65
2021/06/30 05:23:10;;;;;;;;;0.00;0.00;;;;;17.52;67.36;100921.91;5103936;27;45378;-64
2021/06/30 05:25:36;;;;;;;;;0.00;0.00;;;;;17.53;68.16;100927.03;5122570;27;45266;-64
2021/06/30 05:28:02;;;;;;;;;0.00;0.00;;;;;17.56;67.83;100932.03;5122692;27;45327;-65
2021/06/30 05:30:27;;;;;;;;;0.00;0.00;;;;;17.57;68.06;100932.84;5121708;27;45364;-64
2021/06/30 05:32:53;;;;;;;;;0.00;0.00;;;;;17.57;67.67;100935.53;5122535;27;45434;-64
2021/06/30 05:35:18;;;;;;;;;0.00;0.00;;;;;17.59;68.21;100934.34;5103817;27;45280;-64
2021/06/30 05:37:43;;;;;;;;;0.00;0.00;;;;;17.63;68.33;100946.34;5123007;27;45175;-66
2021/06/30 05:40:09;;;;;;;;;0.00;0.00;;;;;17.67;67.75;100938.88;5125821;27;46667;-65
2021/06/30 05:42:35;;;;;;;;;0.00;0.00;;;;;17.68;68.09;100934.41;5125676;27;45283;-65
2021/06/30 05:45:00;;;;;;;;;0.00;0.00;;;;;17.71;68.10;100947.34;5125154;27;45422;-64
2021/06/30 05:47:26;;;;;;;;;0.00;0.00;;;;;17.70;67.87;100949.19;5126006;27;45260;-64
2021/06/30 05:49:51;;;;;;;;;0.00;0.00;;;;;17.63;68.17;100937.53;5107246;27;47158;-64
2021/06/30 05:52:16;;;;;;;;;0.00;0.00;;;;;17.59;67.72;100942.31;5125833;27;45271;-64
2021/06/30 05:54:42;;;;;;;;;0.00;0.00;;;;;17.56;68.14;100941.84;5125620;27;45417;-64
2021/06/30 05:57:07;;;;;;;;;0.00;0.00;;;;;17.56;68.22;100949.81;5125461;27;45645;-64
2021/06/30 05:59:33;;;;;;;;;0.00;0.00;;;;;17.47;68.44;100946.25;5124747;27;46530;-64
2021/06/30 06:01:58;;;;;;;;;0.00;0.00;;;;;17.45;68.52;100955.38;5124915;27;45374;-65
2021/06/30 06:04:23;;;;;;;;;0.00;0.00;;;;;17.45;68.31;100955.38;5122587;27;45304;-65
2021/06/30 06:06:49;;;;;;;;;0.00;0.00;;;;;17.41;68.88;100955.69;5114307;27;45299;-63
2021/06/30 06:09:14;;;;;;;;;0.00;0.00;;;;;17.41;68.88;100957.53;5124971;27;45719;-63
2021/06/30 06:11:39;;;;;;;;;0.00;0.00;;;;;17.46;68.38;100963.19;5125072;27;45322;-64
2021/06/30 06:14:05;;;;;;;;;0.00;0.00;;;;;17.43;69.21;100961.69;5111317;27;45573;-64
2021/06/30 06:16:31;;;;;;;;;0.00;0.00;;;;;17.38;70.18;100966.63;5125079;27;45428;-64
2021/06/30 06:18:57;;;;;;;;;0.00;0.00;;;;;17.33;71.97;100965.44;5106471;27;48015;-64
2021/06/30 06:21:22;;;;;;;;;0.00;0.00;;;;;17.34;70.06;100969.75;5125215;27;45365;-64
2021/06/30 06:23:48;;;;;;;;;0.00;0.00;;;;;17.35;69.69;100971.44;5125125;27;45566;-64
2021/06/30 06:26:20;;;;;;;;;0.00;0.00;;;;;17.38;69.98;100974.59;5125392;27;45656;-64
2021/06/30 06:28:47;;;;;;;;;0.00;0.00;;;;;17.40;69.65;100972.59;5105156;27;46909;-64
2021/06/30 06:31:15;;;;;;;;;0.00;0.00;;;;;17.44;68.94;100973.13;5124609;27;45453;-65
2021/06/30 06:33:41;;;;;;;;;0.00;0.00;;;;;17.51;68.62;100976.81;5124727;27;45249;-63
2021/06/30 06:36:09;;;;;;;;;0.00;0.00;;;;;17.54;68.77;100979.16;5124975;27;45545;-65
2021/06/30 06:38:36;;;;;;;;;0.00;0.00;;;;;17.54;68.25;100979.16;5124205;27;45439;-64
2021/06/30 06:41:01;;;;;;;;;0.00;0.00;;;;;17.57;67.78;100980.66;5124702;27;45490;-64
2021/06/30 06:43:27;;;;;;;;;0.00;0.00;;;;;17.53;68.18;100987.28;5124679;27;45346;-63
2021/06/30 06:45:52;;;;;;;;;0.00;0.00;;;;;17.49;68.06;100984.09;5124272;27;45300;-64
2021/06/30 06:48:18;;;;;;;;;0.00;0.00;;;;;17.42;68.32;100980.41;5124271;27;45409;-63
2021/06/30 06:50:43;;;;;;;;;0.00;0.00;;;;;17.41;68.17;100987.56;5124023;27;45249;-64
2021/06/30 06:53:08;;;;;;;;;0.00;0.00;;;;;17.39;68.20;100989.53;5124617;27;45231;-64
2021/06/30 06:55:34;;;;;;;;;0.00;0.00;;;;;17.36;68.29;100987.19;5124422;27;45159;-64
2021/06/30 06:57:59;;;;;;;;;0.00;0.00;;;;;17.37;68.58;100988.03;5101410;27;48289;-64
2021/06/30 07:00:26;;;;;;;;;0.00;0.00;;;;;17.39;68.18;100991.38;5103320;27;45430;-64
2021/06/30 07:02:51;;;;;;;;;0.00;0.00;;;;;17.39;68.52;100989.53;5103411;27;45426;-64
2021/06/30 07:05:16;;;;;;;;;0.00;0.00;;;;;17.40;68.70;100985.06;5092298;27;45224;-64
2021/06/30 07:07:42;;;;;;;;;0.00;0.00;;;;;17.50;68.50;100998.22;5099911;27;45318;-65
2021/06/30 07:10:09;;;;;;;;;0.00;0.00;;;;;17.61;68.01;100987.31;5103390;27;45501;-65
2021/06/30 07:12:34;;;;;;;;;0.00;0.00;;;;;17.69;67.95;100991.81;5099889;27;45306;-64
2021/06/30 07:15:01;;;;;;;;;0.00;0.00;;;;;17.72;67.48;100994.19;5093082;27;45440;-65
2021/06/30 07:17:28;;;;;;;;;0.00;0.00;;;;;17.76;67.35;100995.53;5102928;27;45743;-64
2021/06/30 07:19:53;;;;;;;;;0.00;0.00;;;;;17.78;67.18;100989.06;5101713;27;45539;-65
2021/06/30 07:22:18;;;;;;;;;0.00;0.00;;;;;17.85;67.05;100994.59;5103098;27;45450;-65
2021/06/30 07:24:44;;;;;;;;;0.00;0.00;;;;;17.93;67.63;100994.63;5103305;27;45211;-66
2021/06/30 07:27:09;;;;;;;;;0.00;0.00;;;;;17.99;67.11;100990.47;5101610;27;47119;-64
2021/06/30 07:29:34;;;;;;;;;0.00;0.00;;;;;18.02;66.55;100995.50;5100837;27;46042;-65
2021/06/30 07:32:00;;;;;;;;;0.00;0.00;;;;;18.03;66.76;100999.78;5103433;27;45707;-64
2021/06/30 07:34:25;;;;;;;;;0.00;0.00;;;;;18.06;67.06;101002.16;5102948;27;45393;-64
2021/06/30 07:36:50;;;;;;;;;0.00;0.00;;;;;18.13;66.50;101002.34;5103000;27;46485;-64
2021/06/30 07:39:16;;;;;;;;;0.00;0.00;;;;;18.26;66.52;101008.00;5101219;27;45260;-65
2021/06/30 07:41:41;;;;;;;;;0.00;0.00;;;;;18.37;66.07;101001.56;5103148;27;45150;-65
2021/06/30 07:44:07;;;;;;;;;0.00;0.00;;;;;18.48;65.90;101011.88;5102801;27;45268;-65
2021/06/30 07:46:33;;;;;;;;;0.00;0.00;;;;;18.54;65.33;101005.06;5101708;27;47445;-64
2021/06/30 07:48:58;;;;;;;;;0.00;0.00;;;;;18.55;65.14;101010.22;5101612;27;45352;-65
2021/06/30 07:51:24;;;;;;;;;0.00;0.00;;;;;18.56;64.97;101024.34;5101344;27;45323;-65
2021/06/30 07:53:49;;;;;;;;;0.00;0.00;;;;;18.62;64.97;101013.88;5103152;27;45465;-64
2021/06/30 07:56:14;;;;;;;;;0.00;0.00;;;;;18.73;64.51;101012.72;5106493;27;46265;-64
2021/06/30 07:58:40;;;;;;;;;0.00;0.00;;;;;18.92;64.53;101016.94;5122978;27;45294;-65
2021/06/30 08:01:06;;;;;;;;;0.00;0.00;;;;;19.16;63.86;101012.59;5122054;27;45321;-67
2021/06/30 08:03:32;;;;;;;;;0.00;0.00;;;;;19.40;62.27;101011.69;5123194;27;45394;-66
2021/06/30 08:05:57;;;;;;;;;0.00;0.00;;;;;19.74;62.65;101008.78;5107428;27;46660;-66
2021/06/30 08:08:23;;;;;;;;;0.00;0.00;;;;;20.28;61.82;101006.19;5102316;27;45355;-65
2021/06/30 08:10:48;;;;;;;;;0.00;0.00;;;;;20.73;60.85;101002.88;5117909;27;45288;-65
2021/06/30 08:13:13;;;;;;;;;0.00;0.00;;;;;20.97;60.35;101001.84;5114997;27;45272;-65
2021/06/30 08:15:39;;;;;;;;;0.00;0.00;;;;;21.02;59.27;101002.97;5116874;27;45487;-66
2021/06/30 08:18:04;;;;;;;;;0.00;0.00;;;;;20.95;58.82;101004.72;5123065;27;45229;-66
2021/06/30 08:20:30;;;;;;;;;0.00;0.00;;;;;20.81;59.04;101003.66;5123535;27;45171;-66
2021/06/30 08:22:55;;;;;;;;;0.00;0.00;;;;;20.78;59.50;101003.19;5123379;27;45155;-66
2021/06/30 08:25:23;;;;;;;;;0.00;0.00;;;;;20.89;59.72;101006.25;5122421;27;45562;-66
2021/06/30 08:27:49;;;;;;;;;0.00;0.00;;;;;20.89;59.11;101006.25;5122605;27;45315;-66
2021/06/30 08:30:14;;;;;;;;;0.00;0.00;;;;;20.89;59.04;101013.44;5122611;27;45266;-66
2021/06/30 08:32:43;;;;;;;;;0.00;0.00;;;;;20.85;58.43;101006.81;5123414;27;45283;-66
2021/06/30 08:35:10;;;;;;;;;0.00;0.00;;;;;20.77;58.63;101007.69;5122924;27;46081;-65
2021/06/30 08:37:39;;;;;;;;;0.00;0.00;;;;;20.75;58.76;101009.69;5104540;27;45217;-65
2021/06/30 08:40:09;;;;;;;;;0.00;0.00;;;;;20.79;58.57;101012.84;5122917;27;45327;-66
2021/06/30 08:42:35;;;;;;;;;0.00;0.00;;;;;20.90;58.13;101010.56;5104199;27;45521;-66
2021/06/30 08:45:00;;;;;;;;;0.00;0.00;;;;;20.99;58.52;101021.19;5122293;27;45260;-67
2021/06/30 08:47:31;;;;;;;;;0.00;0.00;;;;;20.99;58.16;101013.16;5104096;27;45338;-64
2021/06/30 08:49:58;;;;;;;;;0.00;0.00;;;;;21.08;58.10;101017.44;5122138;27;45320;-66
2021/06/30 08:52:24;;;;;;;;;0.00;0.00;;;;;21.27;57.21;101010.72;5122772;27;45518;-65
2021/06/30 08:54:51;;;;;;;;;0.00;0.00;;;;;21.65;56.55;101006.16;5122045;27;45444;-64
2021/06/30 08:57:18;;;;;;;;;0.00;0.00;;;;;21.96;55.90;101013.13;5122190;27;45493;-66
2021/06/30 08:59:44;;;;;;;;;0.00;0.00;;;;;22.07;55.50;101004.66;5103527;27;45526;-65
2021/06/30 09:02:09;;;;;;;;;0.00;0.00;;;;;21.88;54.87;101010.59;5122720;27;45329;-66
2021/06/30 09:04:39;;;;;;;;;0.00;0.00;;;;;21.70;55.24;101000.25;5118801;27;45314;-66
2021/06/30 09:07:04;;;;;;;;;0.00;0.00;;;;;21.63;55.73;101010.03;5102091;27;45205;-65
2021/06/30 09:09:41;;;;;;;;;0.00;0.00;;;;;21.65;55.54;101008.84;5083227;27;45311;-66
2021/06/30 09:12:07;;;;;;;;;0.00;0.00;;;;;21.64;55.18;101011.69;5113907;27;45281;-66
2021/06/30 09:14:40;;;;;;;;;0.00;0.00;;;;;21.59;54.60;101006.91;5106695;27;46548;-65
2021/06/30 09:17:18;;;;;;;;;0.00;0.00;;;;;21.43;55.38;101009.78;5122011;27;45197;-65
2021/06/30 09:19:51;;;;;;;;;0.00;0.00;;;;;21.27;54.93;101000.91;5122014;27;45311;-65
2021/06/30 09:22:19;;;;;;;;;0.00;0.00;;;;;21.19;55.63;101005.50;5121941;27;45316;-65
2021/06/30 09:24:46;;;;;;;;;0.00;0.00;;;;;21.26;55.41;101006.41;5121836;27;46302;-67
2021/06/30 09:27:14;;;;;;;;;0.00;0.00;;;;;21.31;55.76;101002.16;5122002;27;45347;-65
2021/06/30 09:29:42;;;;;;;;;0.00;0.00;;;;;21.36;55.25;101012.34;5120858;27;45227;-65
2021/06/30 09:32:17;;;;;;;;;0.00;0.00;;;;;21.36;55.50;101014.16;5121834;27;45182;-65
2021/06/30 09:34:43;;;;;;;;;0.00;0.00;;;;;21.39;55.08;101016.47;5121828;27;46194;-65
2021/06/30 09:37:10;;;;;;;;;0.00;0.00;;;;;21.41;55.29;101025.13;5121149;27;45419;-65
2021/06/30 09:39:51;;;;;;;;;0.00;0.00;;;;;21.62;55.45;101029.75;5121950;27;45382;-65
2021/06/30 09:42:17;;;;;;;;;0.00;0.00;;;;;21.77;55.24;101032.44;5121921;27;45440;-66
2021/06/30 09:44:43;;;;;;;;;0.00;0.00;;;;;21.92;54.68;101030.56;5121075;27;45404;-66
2021/06/30 09:47:09;;;;;;;;;0.00;0.00;;;;;22.01;53.58;101032.13;5121794;27;45324;-64
2021/06/30 09:49:39;;;;;;;;;0.00;0.00;;;;;21.98;54.04;101029.81;5121561;27;45304;-66
2021/06/30 09:52:19;;;;;;;;;0.00;0.00;;;;;21.95;53.81;101032.88;5121652;27;45464;-66
2021/06/30 09:54:48;;;;;;;;;0.00;0.00;;;;;21.93;54.18;101034.91;5102670;27;46905;-66
2021/06/30 09:57:15;;;;;;;;;0.00;0.00;;;;;21.83;53.77;101032.50;5120942;27;45295;-65
2021/06/30 09:59:48;;;;;;;;;0.00;0.00;;;;;21.72;53.94;101033.00;5120959;27;45289;-66
2021/06/30 10:02:18;;;;;;;;;0.00;0.00;;;;;21.55;53.84;101031.50;5121896;27;45309;-65
2021/06/30 10:04:47;;;;;;;;;0.00;0.00;;;;;21.38;54.31;101030.81;5114938;27;46629;-66
2021/06/30 10:07:13;;;;;;;;;0.00;0.00;;;;;21.22;54.03;101037.16;5100352;27;45324;-65
2021/06/30 10:09:56;;;;;;;;;0.00;0.00;;;;;21.09;54.61;101033.28;5120362;27;45252;-66
2021/06/30 10:12:27;;;;;;;;;0.00;0.00;;;;;21.06;54.71;101032.81;5119047;27;45300;-66
2021/06/30 10:14:54;;;;;;;;;0.00;0.00;;;;;21.09;54.76;101024.44;5102331;27;47098;-66
2021/06/30 10:17:21;;;;;;;;;0.00;0.00;;;;;21.05;54.47;101034.63;5120594;27;45327;-66
2021/06/30 10:19:48;;;;;;;;;0.00;0.00;;;;;20.99;54.60;101034.53;5121610;27;45280;-66
2021/06/30 10:22:14;;;;;;;;;0.00;0.00;;;;;20.99;54.99;101042.53;5121033;27;45211;-66
2021/06/30 10:24:40;;;;;;;;;0.00;0.00;;;;;21.05;54.83;101048.00;5122364;27;45596;-65
2021/06/30 10:27:07;;;;;;;;;0.00;0.00;;;;;21.05;54.50;101039.97;5124527;27;45418;-67
2021/06/30 10:29:36;;;;;;;;;0.00;0.00;;;;;20.96;54.34;101041.06;5124182;27;45220;-65
2021/06/30 10:32:05;;;;;;;;;0.00;0.00;;;;;20.91;54.83;101043.47;5105778;27;45476;-67
2021/06/30 10:34:42;;;;;;;;;0.00;0.00;;;;;20.83;54.89;101035.50;5124583;27;45684;-66
2021/06/30 10:37:37;;;;;;;;;0.00;0.00;;;;;20.77;55.23;101039.72;5124234;27;45213;-66
2021/06/30 10:40:03;;;;;;;;;0.00;0.00;;;;;20.69;55.48;101039.78;5110554;27;45237;-66
2021/06/30 10:42:32;;;;;;;;;0.00;0.00;;;;;20.66;55.66;101040.13;5124138;27;45466;-66
2021/06/30 10:45:17;;;;;;;;;0.00;0.00;;;;;20.97;55.52;101033.88;5123762;27;45377;-65
2021/06/30 10:47:48;;;;;;;;;0.00;0.00;;;;;21.39;54.94;101036.00;5124296;27;45289;-66
2021/06/30 10:50:23;;;;;;;;;0.00;0.00;;;;;21.59;54.37;101040.81;5124231;27;45278;-66
2021/06/30 10:52:53;;;;;;;;;0.00;0.00;;;;;21.49;53.77;101044.63;5124004;27;45266;-65
2021/06/30 10:55:31;;;;;;;;;0.00;0.00;;;;;21.28;53.68;101045.28;5124141;27;46828;-65
2021/06/30 10:58:15;;;;;;;;;0.00;0.00;;;;;21.09;54.15;101043.13;5123791;27;45478;-67
2021/06/30 11:00:51;;;;;;;;;0.00;0.00;;;;;21.09;54.04;101041.28;5124039;27;45635;-65
2021/06/30 11:03:30;;;;;;;;;0.00;0.00;;;;;21.23;53.79;101049.50;5105187;27;46151;-65
2021/06/30 11:06:13;;;;;;;;;0.00;0.00;;;;;21.51;53.20;101047.06;5108210;27;45707;-66
2021/06/30 11:08:49;;;;;;;;;0.00;0.00;;;;;22.27;52.64;101053.06;5114466;27;45404;-64
2021/06/30 11:11:27;;;;;;;;;0.00;0.00;;;;;23.28;49.72;101050.31;5105293;27;45585;-65
2021/06/30 11:14:12;;;;;;;;;0.00;0.00;;;;;23.79;49.26;101049.19;5109043;27;45382;-66
2021/06/30 11:16:43;;;;;;;;;0.00;0.00;;;;;24.91;46.75;101039.81;5112947;27;46519;-65
2021/06/30 11:19:15;;;;;;;;;0.00;0.00;;;;;25.17;45.99;101048.91;5123520;27;45368;-66
2021/06/30 11:21:51;;;;;;;;;0.00;0.00;;;;;25.37;45.37;101046.22;5123580;27;45220;-65
2021/06/30 11:24:45;;;;;;;;;0.00;0.00;;;;;25.78;44.20;101047.75;5123797;27;45563;-65